ADDS METAR Data INFO
IDs: Format: Raw Decoded Include TAF

Data at: 0731 UTC 18 Oct 2017

KEBS 180715Z AUTO 17007KT 10SM CLR 10/07 A2995 RMK AO2
KEBS 180655Z AUTO VRB06KT 10SM CLR 10/07 A2995 RMK AO2
KEBS 180635Z AUTO 17006KT 10SM CLR 10/07 A2996 RMK AO2
KEBS 180615Z AUTO 17006KT 10SM CLR 10/07 A2996 RMK AO2
KEBS 180555Z AUTO 16006KT 10SM CLR 10/07 A2997 RMK AO2
KEBS 180535Z AUTO 16006KT 10SM CLR 10/07 A2997 RMK AO2
KEBS 180515Z AUTO 17006KT 10SM CLR 11/07 A2998 RMK AO2
KEBS 180455Z AUTO 17005KT 10SM CLR 11/07 A2998 RMK AO2
KEBS 180435Z AUTO 17005KT 10SM CLR 11/07 A2998 RMK AO2
KEBS 180415Z AUTO 17006KT 10SM CLR 12/07 A2998 RMK AO2
KEBS 180355Z AUTO 17006KT 10SM CLR 12/07 A2999 RMK AO2
KEBS 180335Z AUTO 17007KT 10SM CLR 12/07 A2999 RMK AO2
KEBS 180315Z AUTO 17007KT 10SM CLR 12/07 A2999 RMK AO2
KEBS 180255Z AUTO 17007KT 10SM CLR 12/07 A3000 RMK AO2
KEBS 180235Z AUTO 17006KT 10SM CLR 13/07 A3000 RMK AO2
KEBS 180215Z AUTO 17005KT 10SM CLR 13/07 A2999 RMK AO2
KEBS 180155Z AUTO 17006KT 10SM CLR 13/06 A2999 RMK AO2
KEBS 180135Z AUTO 16007KT 10SM CLR 13/06 A3000 RMK AO2
KEBS 180115Z AUTO 17006KT 10SM CLR 14/06 A3000 RMK AO2
KEBS 180055Z AUTO 16006KT 10SM CLR 13/06 A3000 RMK AO2
KEBS 180035Z AUTO 19005KT 10SM CLR 15/06 A2999 RMK AO2
KEBS 180015Z AUTO 20006KT 10SM CLR 16/06 A2999 RMK AO2
KEBS 172355Z AUTO 19006KT 10SM CLR 17/06 A2999 RMK AO2
KEBS 172335Z AUTO 19006KT 10SM CLR 18/06 A2998 RMK AO2
KEBS 172315Z AUTO 19007KT 10SM CLR 20/06 A2998 RMK AO2
KEBS 172255Z AUTO 20008KT 10SM CLR 21/06 A2998 RMK AO2
KEBS 172235Z AUTO 20007G15KT 160V220 10SM CLR 22/06 A2998 RMK AO2
KEBS 172215Z AUTO 19008G14KT 10SM CLR 22/06 A2998 RMK AO2
KEBS 172155Z AUTO 21011G16KT 10SM CLR 23/06 A2998 RMK AO2
KEBS 172135Z AUTO 19012KT 10SM CLR 23/06 A2998 RMK AO2
KEBS 172115Z AUTO 21010G15KT 10SM CLR 23/06 A2999 RMK AO2
KEBS 172055Z AUTO 22010KT 10SM CLR 23/06 A2999 RMK AO2
KEBS 172035Z AUTO 19010G15KT 150V210 10SM CLR 23/06 A2999 RMK AO2
KEBS 172015Z AUTO 19008G18KT 10SM CLR 23/06 A3000 RMK AO2
KEBS 171955Z AUTO 19009G16KT 10SM CLR 23/06 A3000 RMK AO2
KEBS 171935Z AUTO 19010KT 160V220 10SM CLR 22/06 A3001 RMK AO2
KEBS 171915Z AUTO 19008KT 10SM CLR 22/06 A3002 RMK AO2
KEBS 171855Z AUTO VRB06G13KT 10SM CLR 22/06 A3003 RMK AO2
KEBS 171835Z AUTO 23009KT 10SM CLR 21/06 A3003 RMK AO2
KEBS 171815Z AUTO 21008KT 190V250 10SM CLR 20/06 A3004 RMK AO2
KEBS 171755Z AUTO 22011KT 10SM CLR 20/05 A3005 RMK AO2
KEBS 171735Z AUTO 21007G16KT 190V260 10SM CLR 19/05 A3006 RMK AO2
KEBS 171715Z AUTO 23009G15KT 10SM CLR 19/05 A3006 RMK AO2
KEBS 171655Z AUTO 21009KT 10SM CLR 18/05 A3007 RMK AO2
KEBS 171635Z AUTO 22010KT 10SM CLR 18/05 A3007 RMK AO2
KEBS 171615Z AUTO 23009G17KT 10SM CLR 17/06 A3008 RMK AO2
KEBS 171555Z AUTO 22008G15KT 10SM CLR 16/06 A3008 RMK AO2
KEBS 171535Z AUTO 24012G17KT 10SM CLR 16/05 A3008 RMK AO2
KEBS 171515Z AUTO 22009G15KT 10SM CLR 15/05 A3008 RMK AO2
KEBS 171455Z AUTO 23011KT 10SM CLR 14/05 A3009 RMK AO2
KEBS 171435Z AUTO 21010KT 10SM CLR 13/05 A3008 RMK AO2
KEBS 171415Z AUTO 9.66666710KT 10SM CLR 12/05 A3008 RMK AO2
KEBS 171355Z AUTO 21009KT 10SM CLR 11/05 A3008 RMK AO2
KEBS 171335Z AUTO 20005KT 10SM CLR 10/05 A3008 RMK AO2
KEBS 171315Z AUTO 19004KT 10SM CLR 08/05 A3007 RMK AO2
KEBS 171255Z AUTO 20006KT 10SM CLR 07/04 A3007 RMK AO2
KEBS 171235Z AUTO 20006KT 10SM CLR 07/04 A3007 RMK AO2
KEBS 171215Z AUTO 19006KT 10SM CLR 07/04 A3007 RMK AO2
KEBS 171155Z AUTO 20006KT 10SM CLR 08/04 A3007 RMK AO2
KEBS 171135Z AUTO 20007KT 10SM CLR 09/04 A3007 RMK AO2
KEBS 171115Z AUTO 20007KT CLR 08/04 A3007 RMK AO2
KEBS 171055Z AUTO 20007KT 10SM CLR 08/04 A3007 RMK AO2
KEBS 171035Z AUTO 19006KT 10SM CLR 08/04 A3007 RMK AO2
KEBS 171015Z AUTO 19006KT 10SM CLR 08/04 A3007 RMK AO2
KEBS 170955Z AUTO 20005KT 10SM CLR 09/04 A3007 RMK AO2
KEBS 170935Z AUTO 20006KT 10SM CLR 08/04 A3007 RMK AO2
KEBS 170915Z AUTO 21006KT 10SM CLR 10/04 A3006 RMK AO2
KEBS 170855Z AUTO 21006KT 10SM CLR 10/04 A3006 RMK AO2
KEBS 170835Z AUTO 22007KT 10SM CLR 11/04 A3006 RMK AO2
KEBS 170815Z AUTO 21008KT 10SM CLR 11/04 A3006 RMK AO2
KEBS 170755Z AUTO 22009KT 10SM CLR 11/04 A3007 RMK AO2
KEBS 170735Z AUTO 21009KT 10SM CLR 11/04 A3006 RMK AO2
KEBS 170715Z AUTO 21010KT 10SM CLR 11/04 A3006 RMK AO2
KEBS 170655Z AUTO 21010KT 10SM CLR 12/04 A3006 RMK AO2
KEBS 170635Z AUTO 21010KT 10SM CLR 12/04 A3006 RMK AO2
KEBS 170615Z AUTO 21010KT 10SM CLR 13/04 A3006 RMK AO2
KEBS 170555Z AUTO 21009G16KT 10SM CLR 13/04 A3006 RMK AO2
KEBS 170535Z AUTO 20010KT 10SM CLR 13/04 A3006 RMK AO2
KEBS 170515Z AUTO 20012G18KT 10SM CLR 14/04 A3005 RMK AO2
KEBS 170455Z AUTO 20011G17KT 10SM CLR 13/04 A3006 RMK AO2
KEBS 170435Z AUTO 20007KT 10SM CLR 12/05 A3007 RMK AO2
KEBS 170415Z AUTO 19007KT 10SM CLR 11/05 A3007 RMK AO2
KEBS 170355Z AUTO 19007KT 10SM CLR 11/05 A3008 RMK AO2
KEBS 170335Z AUTO 18007KT 10SM CLR 11/05 A3008 RMK AO2
KEBS 170315Z AUTO 18007KT 10SM CLR 11/04 A3009 RMK AO2
KEBS 170255Z AUTO 18006KT 10SM CLR 11/04 A3009 RMK AO2
KEBS 170235Z AUTO 18007KT 10SM CLR 11/04 A3008 RMK AO2
KEBS 170215Z AUTO 18007KT 10SM CLR 11/04 A3008 RMK AO2
KEBS 170155Z AUTO 18008KT CLR 11/04 A3009 RMK AO2
KEBS 170135Z AUTO 18008KT 10SM CLR 12/04 A3009 RMK AO2
KEBS 170115Z AUTO 18008KT 10SM CLR 12/03 A3009 RMK AO2
KEBS 170055Z AUTO 18007KT 10SM CLR 12/03 A3009 RMK AO2
KEBS 170035Z AUTO 18006KT 10SM CLR 13/03 A3009 RMK AO2
KEBS 170015Z AUTO 18006KT 10SM CLR 14/03 A3009 RMK AO2
KEBS 162355Z AUTO 18007KT 10SM CLR 15/03 A3009 RMK AO2
KEBS 162335Z AUTO 18007KT 10SM CLR 16/03 A3008 RMK AO2
KEBS 162315Z AUTO 19008G15KT 10SM CLR 18/02 A3008 RMK AO2
KEBS 162255Z AUTO 19011KT 10SM CLR 19/02 A3009 RMK AO2
KEBS 162235Z AUTO 19008G14KT 10SM CLR 20/02 A3010 RMK AO2
KEBS 162215Z AUTO 21008G16KT 10SM CLR 20/01 A3010 RMK AO2
KEBS 162155Z AUTO 20012G18KT 10SM CLR 21/01 A3010 RMK AO2
KEBS 162135Z AUTO 20013G18KT 10SM CLR 21/01 A3011 RMK AO2
KEBS 162115Z AUTO 21013G20KT 10SM CLR 21/00 A3012 RMK AO2
KEBS 162055Z AUTO 19013KT 10SM CLR 21/00 A3013 RMK AO2
KEBS 162035Z AUTO 22012G21KT 10SM CLR 21/00 A3014 RMK AO2
KEBS 162015Z AUTO 23012G19KT 10SM CLR 21/M00 A3015 RMK AO2
KEBS 161955Z AUTO 22012G18KT 10SM CLR 21/M00 A3016 RMK AO2
KEBS 161935Z AUTO 21011G17KT 170V240 10SM CLR 20/00 A3017 RMK AO2